sensor_id;sensor_type;location;lat;lon;timestamp;P1;durP1;ratioP1;P2;durP2;ratioP2
76202;SDS011;64985;46.364;17.008;2024-01-06T00:01:29;20.25;;;10.77;;
76202;SDS011;64985;46.364;17.008;2024-01-06T00:04:32;19.30;;;11.00;;
76202;SDS011;64985;46.364;17.008;2024-01-06T00:07:34;21.58;;;11.50;;
76202;SDS011;64985;46.364;17.008;2024-01-06T00:10:36;25.10;;;13.55;;
76202;SDS011;64985;46.364;17.008;2024-01-06T00:13:39;23.38;;;12.65;;
76202;SDS011;64985;46.364;17.008;2024-01-06T00:16:41;21.45;;;11.52;;
76202;SDS011;64985;46.364;17.008;2024-01-06T00:19:43;23.55;;;11.65;;
76202;SDS011;64985;46.364;17.008;2024-01-06T00:22:46;21.88;;;11.20;;
76202;SDS011;64985;46.364;17.008;2024-01-06T00:25:48;22.15;;;11.20;;
76202;SDS011;64985;46.364;17.008;2024-01-06T00:28:50;23.45;;;11.75;;
76202;SDS011;64985;46.364;17.008;2024-01-06T00:31:52;24.13;;;11.45;;
76202;SDS011;64985;46.364;17.008;2024-01-06T00:34:55;21.35;;;10.77;;
76202;SDS011;64985;46.364;17.008;2024-01-06T00:37:57;21.45;;;11.75;;
76202;SDS011;64985;46.364;17.008;2024-01-06T00:41:02;22.88;;;11.32;;
76202;SDS011;64985;46.364;17.008;2024-01-06T00:44:05;22.30;;;11.40;;
76202;SDS011;64985;46.364;17.008;2024-01-06T00:47:07;21.50;;;11.38;;
76202;SDS011;64985;46.364;17.008;2024-01-06T00:50:09;25.67;;;11.90;;
76202;SDS011;64985;46.364;17.008;2024-01-06T00:53:12;22.77;;;11.75;;
76202;SDS011;64985;46.364;17.008;2024-01-06T00:56:14;26.65;;;13.75;;
76202;SDS011;64985;46.364;17.008;2024-01-06T00:59:16;23.17;;;11.55;;
76202;SDS011;64985;46.364;17.008;2024-01-06T01:02:19;22.42;;;11.63;;
76202;SDS011;64985;46.364;17.008;2024-01-06T01:05:21;22.73;;;11.48;;
76202;SDS011;64985;46.364;17.008;2024-01-06T01:08:24;21.42;;;12.00;;
76202;SDS011;64985;46.364;17.008;2024-01-06T01:11:26;63.22;;;29.10;;
76202;SDS011;64985;46.364;17.008;2024-01-06T01:14:28;95.55;;;41.08;;
76202;SDS011;64985;46.364;17.008;2024-01-06T01:17:32;26.67;;;13.88;;
76202;SDS011;64985;46.364;17.008;2024-01-06T01:20:34;38.45;;;18.92;;
76202;SDS011;64985;46.364;17.008;2024-01-06T01:23:36;31.70;;;16.48;;
76202;SDS011;64985;46.364;17.008;2024-01-06T01:26:38;26.58;;;13.50;;
76202;SDS011;64985;46.364;17.008;2024-01-06T01:29:41;26.05;;;13.25;;
76202;SDS011;64985;46.364;17.008;2024-01-06T01:32:43;24.02;;;12.75;;
76202;SDS011;64985;46.364;17.008;2024-01-06T01:35:46;28.88;;;12.55;;
76202;SDS011;64985;46.364;17.008;2024-01-06T01:38:48;23.88;;;11.27;;
76202;SDS011;64985;46.364;17.008;2024-01-06T01:41:50;21.85;;;11.10;;
76202;SDS011;64985;46.364;17.008;2024-01-06T01:44:53;30.48;;;17.77;;
76202;SDS011;64985;46.364;17.008;2024-01-06T01:47:55;23.00;;;12.95;;
76202;SDS011;64985;46.364;17.008;2024-01-06T01:50:57;20.77;;;11.07;;
76202;SDS011;64985;46.364;17.008;2024-01-06T01:54:01;25.65;;;12.25;;
76202;SDS011;64985;46.364;17.008;2024-01-06T01:57:05;20.75;;;11.23;;
76202;SDS011;64985;46.364;17.008;2024-01-06T02:00:08;25.25;;;12.40;;
76202;SDS011;64985;46.364;17.008;2024-01-06T02:03:11;28.67;;;14.40;;
76202;SDS011;64985;46.364;17.008;2024-01-06T02:06:15;23.08;;;11.75;;
76202;SDS011;64985;46.364;17.008;2024-01-06T02:09:17;27.20;;;13.23;;
76202;SDS011;64985;46.364;17.008;2024-01-06T02:12:20;26.83;;;13.38;;
76202;SDS011;64985;46.364;17.008;2024-01-06T02:15:22;20.92;;;11.52;;
76202;SDS011;64985;46.364;17.008;2024-01-06T02:18:24;24.08;;;11.57;;
76202;SDS011;64985;46.364;17.008;2024-01-06T02:21:27;22.17;;;12.02;;
76202;SDS011;64985;46.364;17.008;2024-01-06T02:24:30;21.23;;;11.60;;
76202;SDS011;64985;46.364;17.008;2024-01-06T02:27:33;23.45;;;12.70;;
76202;SDS011;64985;46.364;17.008;2024-01-06T02:30:35;26.23;;;12.82;;
76202;SDS011;64985;46.364;17.008;2024-01-06T02:33:37;30.65;;;13.80;;
76202;SDS011;64985;46.364;17.008;2024-01-06T02:36:40;29.48;;;13.55;;
76202;SDS011;64985;46.364;17.008;2024-01-06T02:39:43;25.50;;;13.20;;
76202;SDS011;64985;46.364;17.008;2024-01-06T02:42:45;23.60;;;13.55;;
76202;SDS011;64985;46.364;17.008;2024-01-06T02:45:47;25.90;;;12.82;;
76202;SDS011;64985;46.364;17.008;2024-01-06T02:48:50;26.73;;;13.20;;
76202;SDS011;64985;46.364;17.008;2024-01-06T02:51:53;26.67;;;13.70;;
76202;SDS011;64985;46.364;17.008;2024-01-06T02:54:55;25.92;;;13.48;;
76202;SDS011;64985;46.364;17.008;2024-01-06T02:57:57;27.42;;;13.77;;
76202;SDS011;64985;46.364;17.008;2024-01-06T03:00:59;27.50;;;14.38;;
76202;SDS011;64985;46.364;17.008;2024-01-06T03:04:01;26.50;;;13.35;;
76202;SDS011;64985;46.364;17.008;2024-01-06T03:07:04;25.42;;;13.85;;
76202;SDS011;64985;46.364;17.008;2024-01-06T03:10:07;25.17;;;13.02;;
76202;SDS011;64985;46.364;17.008;2024-01-06T03:13:10;24.92;;;13.48;;
76202;SDS011;64985;46.364;17.008;2024-01-06T03:16:12;25.67;;;13.73;;
76202;SDS011;64985;46.364;17.008;2024-01-06T03:19:14;28.48;;;14.52;;
76202;SDS011;64985;46.364;17.008;2024-01-06T03:22:17;26.42;;;14.35;;
76202;SDS011;64985;46.364;17.008;2024-01-06T03:25:19;25.58;;;14.05;;
76202;SDS011;64985;46.364;17.008;2024-01-06T03:28:21;27.60;;;13.98;;
76202;SDS011;64985;46.364;17.008;2024-01-06T03:31:24;25.10;;;13.98;;
76202;SDS011;64985;46.364;17.008;2024-01-06T03:34:26;27.40;;;14.23;;
76202;SDS011;64985;46.364;17.008;2024-01-06T03:37:28;27.02;;;14.82;;
76202;SDS011;64985;46.364;17.008;2024-01-06T03:40:31;28.58;;;14.82;;
76202;SDS011;64985;46.364;17.008;2024-01-06T03:43:33;27.63;;;14.80;;
76202;SDS011;64985;46.364;17.008;2024-01-06T03:46:35;28.02;;;15.40;;
76202;SDS011;64985;46.364;17.008;2024-01-06T03:49:37;26.02;;;14.85;;
76202;SDS011;64985;46.364;17.008;2024-01-06T03:52:40;28.15;;;14.23;;
76202;SDS011;64985;46.364;17.008;2024-01-06T03:55:42;26.95;;;14.25;;
76202;SDS011;64985;46.364;17.008;2024-01-06T03:58:45;31.55;;;16.90;;
76202;SDS011;64985;46.364;17.008;2024-01-06T04:01:47;30.92;;;14.98;;
76202;SDS011;64985;46.364;17.008;2024-01-06T04:04:49;26.77;;;14.80;;
76202;SDS011;64985;46.364;17.008;2024-01-06T04:07:52;30.88;;;14.10;;
76202;SDS011;64985;46.364;17.008;2024-01-06T04:10:54;27.00;;;14.60;;
76202;SDS011;64985;46.364;17.008;2024-01-06T04:13:56;28.42;;;14.90;;
76202;SDS011;64985;46.364;17.008;2024-01-06T04:16:59;28.38;;;13.82;;
76202;SDS011;64985;46.364;17.008;2024-01-06T04:20:01;23.13;;;13.05;;
76202;SDS011;64985;46.364;17.008;2024-01-06T04:23:03;28.73;;;14.45;;
76202;SDS011;64985;46.364;17.008;2024-01-06T04:26:06;22.77;;;11.85;;
76202;SDS011;64985;46.364;17.008;2024-01-06T04:29:08;23.10;;;11.98;;
76202;SDS011;64985;46.364;17.008;2024-01-06T04:32:11;25.30;;;11.02;;
76202;SDS011;64985;46.364;17.008;2024-01-06T04:35:13;24.17;;;11.07;;
76202;SDS011;64985;46.364;17.008;2024-01-06T04:38:15;21.08;;;11.30;;
76202;SDS011;64985;46.364;17.008;2024-01-06T04:41:18;20.48;;;10.27;;
76202;SDS011;64985;46.364;17.008;2024-01-06T04:44:20;19.63;;;9.93;;
76202;SDS011;64985;46.364;17.008;2024-01-06T04:47:24;20.13;;;10.10;;
76202;SDS011;64985;46.364;17.008;2024-01-06T04:50:26;19.23;;;10.88;;
76202;SDS011;64985;46.364;17.008;2024-01-06T04:53:28;22.33;;;10.85;;
76202;SDS011;64985;46.364;17.008;2024-01-06T04:56:31;22.00;;;11.30;;
76202;SDS011;64985;46.364;17.008;2024-01-06T04:59:37;25.67;;;11.02;;
76202;SDS011;64985;46.364;17.008;2024-01-06T05:02:39;19.17;;;10.13;;
76202;SDS011;64985;46.364;17.008;2024-01-06T05:05:43;20.02;;;9.63;;
76202;SDS011;64985;46.364;17.008;2024-01-06T05:08:45;21.90;;;9.70;;
76202;SDS011;64985;46.364;17.008;2024-01-06T05:11:47;17.95;;;9.70;;
76202;SDS011;64985;46.364;17.008;2024-01-06T05:14:49;18.10;;;9.70;;
76202;SDS011;64985;46.364;17.008;2024-01-06T05:17:52;19.77;;;9.80;;
76202;SDS011;64985;46.364;17.008;2024-01-06T05:20:54;19.00;;;9.35;;
76202;SDS011;64985;46.364;17.008;2024-01-06T05:23:58;17.95;;;9.13;;
76202;SDS011;64985;46.364;17.008;2024-01-06T05:27:01;18.02;;;9.20;;
76202;SDS011;64985;46.364;17.008;2024-01-06T05:30:03;19.52;;;9.43;;
76202;SDS011;64985;46.364;17.008;2024-01-06T05:33:11;18.85;;;9.95;;
76202;SDS011;64985;46.364;17.008;2024-01-06T05:36:20;16.45;;;8.63;;
76202;SDS011;64985;46.364;17.008;2024-01-06T05:39:22;17.80;;;9.00;;
76202;SDS011;64985;46.364;17.008;2024-01-06T05:42:25;18.77;;;8.95;;
76202;SDS011;64985;46.364;17.008;2024-01-06T05:45:27;16.58;;;8.45;;
76202;SDS011;64985;46.364;17.008;2024-01-06T05:48:32;17.35;;;8.90;;
76202;SDS011;64985;46.364;17.008;2024-01-06T05:51:34;19.08;;;8.73;;
76202;SDS011;64985;46.364;17.008;2024-01-06T05:54:40;15.70;;;8.77;;
76202;SDS011;64985;46.364;17.008;2024-01-06T05:57:44;19.50;;;9.32;;
76202;SDS011;64985;46.364;17.008;2024-01-06T06:00:46;14.85;;;7.90;;
76202;SDS011;64985;46.364;17.008;2024-01-06T06:03:50;20.58;;;10.73;;
76202;SDS011;64985;46.364;17.008;2024-01-06T06:06:53;21.58;;;11.18;;
76202;SDS011;64985;46.364;17.008;2024-01-06T06:09:57;17.40;;;8.65;;
76202;SDS011;64985;46.364;17.008;2024-01-06T06:13:00;17.65;;;9.10;;
76202;SDS011;64985;46.364;17.008;2024-01-06T06:16:03;18.13;;;9.43;;
76202;SDS011;64985;46.364;17.008;2024-01-06T06:19:06;16.15;;;8.75;;
76202;SDS011;64985;46.364;17.008;2024-01-06T06:22:09;17.73;;;9.07;;
76202;SDS011;64985;46.364;17.008;2024-01-06T06:25:11;19.10;;;8.60;;
76202;SDS011;64985;46.364;17.008;2024-01-06T06:28:14;19.08;;;8.88;;
76202;SDS011;64985;46.364;17.008;2024-01-06T06:31:16;15.23;;;8.70;;
76202;SDS011;64985;46.364;17.008;2024-01-06T06:34:18;17.55;;;8.90;;
76202;SDS011;64985;46.364;17.008;2024-01-06T06:37:21;18.70;;;10.35;;
76202;SDS011;64985;46.364;17.008;2024-01-06T06:40:23;15.15;;;8.32;;
76202;SDS011;64985;46.364;17.008;2024-01-06T06:43:26;16.67;;;9.43;;
76202;SDS011;64985;46.364;17.008;2024-01-06T06:46:28;17.20;;;9.25;;
76202;SDS011;64985;46.364;17.008;2024-01-06T06:49:30;16.75;;;8.80;;
76202;SDS011;64985;46.364;17.008;2024-01-06T06:52:32;17.92;;;9.57;;
76202;SDS011;64985;46.364;17.008;2024-01-06T06:55:35;19.20;;;9.18;;
76202;SDS011;64985;46.364;17.008;2024-01-06T06:58:39;19.50;;;9.65;;
76202;SDS011;64985;46.364;17.008;2024-01-06T07:01:42;15.18;;;8.80;;
76202;SDS011;64985;46.364;17.008;2024-01-06T07:04:44;22.83;;;10.00;;
76202;SDS011;64985;46.364;17.008;2024-01-06T07:07:46;19.98;;;9.52;;
76202;SDS011;64985;46.364;17.008;2024-01-06T07:10:49;18.63;;;9.88;;
76202;SDS011;64985;46.364;17.008;2024-01-06T07:13:51;16.95;;;9.73;;
76202;SDS011;64985;46.364;17.008;2024-01-06T07:16:53;19.10;;;9.63;;
76202;SDS011;64985;46.364;17.008;2024-01-06T07:19:55;17.25;;;9.73;;
76202;SDS011;64985;46.364;17.008;2024-01-06T07:22:58;19.70;;;9.30;;
76202;SDS011;64985;46.364;17.008;2024-01-06T07:26:00;18.25;;;8.98;;
76202;SDS011;64985;46.364;17.008;2024-01-06T07:29:02;16.00;;;9.07;;
76202;SDS011;64985;46.364;17.008;2024-01-06T07:32:05;17.98;;;9.23;;
76202;SDS011;64985;46.364;17.008;2024-01-06T07:35:10;15.32;;;9.05;;
76202;SDS011;64985;46.364;17.008;2024-01-06T07:38:12;16.77;;;8.82;;
76202;SDS011;64985;46.364;17.008;2024-01-06T07:41:15;17.05;;;8.88;;
76202;SDS011;64985;46.364;17.008;2024-01-06T07:44:17;19.75;;;9.07;;
76202;SDS011;64985;46.364;17.008;2024-01-06T07:47:26;17.17;;;9.13;;
76202;SDS011;64985;46.364;17.008;2024-01-06T07:50:29;16.17;;;8.93;;
76202;SDS011;64985;46.364;17.008;2024-01-06T07:53:31;15.90;;;9.23;;
76202;SDS011;64985;46.364;17.008;2024-01-06T07:56:35;13.68;;;8.90;;
76202;SDS011;64985;46.364;17.008;2024-01-06T07:59:37;22.58;;;12.57;;
76202;SDS011;64985;46.364;17.008;2024-01-06T08:02:39;17.83;;;10.60;;
76202;SDS011;64985;46.364;17.008;2024-01-06T08:05:42;20.65;;;10.85;;
76202;SDS011;64985;46.364;17.008;2024-01-06T08:08:45;21.05;;;11.00;;
76202;SDS011;64985;46.364;17.008;2024-01-06T08:11:50;20.52;;;11.15;;
76202;SDS011;64985;46.364;17.008;2024-01-06T08:14:52;45.55;;;20.27;;
76202;SDS011;64985;46.364;17.008;2024-01-06T08:17:54;46.90;;;21.63;;
76202;SDS011;64985;46.364;17.008;2024-01-06T08:20:56;42.42;;;19.92;;
76202;SDS011;64985;46.364;17.008;2024-01-06T08:24:00;38.92;;;18.75;;
76202;SDS011;64985;46.364;17.008;2024-01-06T08:27:02;39.00;;;18.25;;
76202;SDS011;64985;46.364;17.008;2024-01-06T08:30:05;37.78;;;18.27;;
76202;SDS011;64985;46.364;17.008;2024-01-06T08:33:08;37.95;;;17.80;;
76202;SDS011;64985;46.364;17.008;2024-01-06T08:36:10;34.15;;;16.48;;
76202;SDS011;64985;46.364;17.008;2024-01-06T08:39:13;33.95;;;17.30;;
76202;SDS011;64985;46.364;17.008;2024-01-06T08:42:16;35.75;;;18.48;;
76202;SDS011;64985;46.364;17.008;2024-01-06T08:45:18;35.53;;;18.67;;
76202;SDS011;64985;46.364;17.008;2024-01-06T08:48:21;35.88;;;16.70;;
76202;SDS011;64985;46.364;17.008;2024-01-06T08:51:24;33.15;;;16.48;;
76202;SDS011;64985;46.364;17.008;2024-01-06T08:54:28;42.80;;;21.95;;
76202;SDS011;64985;46.364;17.008;2024-01-06T08:57:30;45.10;;;24.98;;
76202;SDS011;64985;46.364;17.008;2024-01-06T09:00:32;52.08;;;26.17;;
76202;SDS011;64985;46.364;17.008;2024-01-06T09:03:35;57.35;;;29.13;;
76202;SDS011;64985;46.364;17.008;2024-01-06T09:06:37;55.75;;;29.05;;
76202;SDS011;64985;46.364;17.008;2024-01-06T09:09:40;47.83;;;27.70;;
76202;SDS011;64985;46.364;17.008;2024-01-06T09:12:43;43.40;;;23.65;;
76202;SDS011;64985;46.364;17.008;2024-01-06T09:15:45;41.40;;;24.50;;
76202;SDS011;64985;46.364;17.008;2024-01-06T09:18:47;40.13;;;24.88;;
76202;SDS011;64985;46.364;17.008;2024-01-06T09:21:51;38.72;;;22.73;;
76202;SDS011;64985;46.364;17.008;2024-01-06T09:24:53;40.20;;;22.90;;
76202;SDS011;64985;46.364;17.008;2024-01-06T09:27:56;36.10;;;20.63;;
76202;SDS011;64985;46.364;17.008;2024-01-06T09:30:58;40.08;;;22.25;;
76202;SDS011;64985;46.364;17.008;2024-01-06T09:34:01;40.58;;;22.27;;
76202;SDS011;64985;46.364;17.008;2024-01-06T09:37:08;53.92;;;29.60;;
76202;SDS011;64985;46.364;17.008;2024-01-06T09:40:11;39.88;;;21.33;;
76202;SDS011;64985;46.364;17.008;2024-01-06T09:43:17;34.78;;;19.90;;
76202;SDS011;64985;46.364;17.008;2024-01-06T09:46:26;42.97;;;21.20;;
76202;SDS011;64985;46.364;17.008;2024-01-06T09:49:31;36.17;;;18.10;;
76202;SDS011;64985;46.364;17.008;2024-01-06T09:52:34;34.35;;;16.08;;
76202;SDS011;64985;46.364;17.008;2024-01-06T09:55:41;37.45;;;19.13;;
76202;SDS011;64985;46.364;17.008;2024-01-06T09:58:44;46.35;;;22.13;;
76202;SDS011;64985;46.364;17.008;2024-01-06T10:01:48;38.92;;;20.35;;
76202;SDS011;64985;46.364;17.008;2024-01-06T10:04:51;35.00;;;22.00;;
76202;SDS011;64985;46.364;17.008;2024-01-06T10:07:54;33.50;;;18.33;;
76202;SDS011;64985;46.364;17.008;2024-01-06T10:10:56;28.80;;;16.30;;
76202;SDS011;64985;46.364;17.008;2024-01-06T10:13:58;30.42;;;15.27;;
76202;SDS011;64985;46.364;17.008;2024-01-06T10:17:00;26.70;;;16.40;;
76202;SDS011;64985;46.364;17.008;2024-01-06T10:20:03;28.45;;;15.77;;
76202;SDS011;64985;46.364;17.008;2024-01-06T10:23:19;30.42;;;17.42;;
76202;SDS011;64985;46.364;17.008;2024-01-06T10:26:23;39.08;;;21.85;;
76202;SDS011;64985;46.364;17.008;2024-01-06T10:29:26;33.58;;;18.45;;
76202;SDS011;64985;46.364;17.008;2024-01-06T10:32:32;56.10;;;31.65;;
76202;SDS011;64985;46.364;17.008;2024-01-06T10:35:35;36.20;;;22.00;;
76202;SDS011;64985;46.364;17.008;2024-01-06T10:38:39;41.13;;;23.00;;
76202;SDS011;64985;46.364;17.008;2024-01-06T10:41:42;36.60;;;20.48;;
76202;SDS011;64985;46.364;17.008;2024-01-06T10:44:46;63.00;;;38.10;;
76202;SDS011;64985;46.364;17.008;2024-01-06T10:47:49;42.80;;;20.85;;
76202;SDS011;64985;46.364;17.008;2024-01-06T10:50:53;39.60;;;21.70;;
76202;SDS011;64985;46.364;17.008;2024-01-06T10:53:57;39.67;;;21.27;;
76202;SDS011;64985;46.364;17.008;2024-01-06T10:57:02;43.53;;;23.05;;
76202;SDS011;64985;46.364;17.008;2024-01-06T11:00:05;44.58;;;23.75;;
76202;SDS011;64985;46.364;17.008;2024-01-06T11:03:08;50.08;;;25.13;;
76202;SDS011;64985;46.364;17.008;2024-01-06T11:06:11;42.80;;;22.85;;
76202;SDS011;64985;46.364;17.008;2024-01-06T11:09:16;40.55;;;22.65;;
76202;SDS011;64985;46.364;17.008;2024-01-06T11:12:23;44.03;;;22.02;;
76202;SDS011;64985;46.364;17.008;2024-01-06T11:16:01;43.88;;;23.08;;
76202;SDS011;64985;46.364;17.008;2024-01-06T11:18:56;44.00;;;22.70;;
76202;SDS011;64985;46.364;17.008;2024-01-06T11:25:20;45.33;;;24.75;;
76202;SDS011;64985;46.364;17.008;2024-01-06T11:28:24;37.15;;;22.15;;
76202;SDS011;64985;46.364;17.008;2024-01-06T11:31:32;39.78;;;22.00;;
76202;SDS011;64985;46.364;17.008;2024-01-06T11:34:36;49.00;;;26.48;;
76202;SDS011;64985;46.364;17.008;2024-01-06T11:40:41;38.38;;;21.73;;
76202;SDS011;64985;46.364;17.008;2024-01-06T11:43:44;37.67;;;22.25;;
76202;SDS011;64985;46.364;17.008;2024-01-06T11:46:48;48.25;;;25.25;;
76202;SDS011;64985;46.364;17.008;2024-01-06T11:49:53;50.22;;;26.13;;
76202;SDS011;64985;46.364;17.008;2024-01-06T11:52:57;39.55;;;21.65;;
76202;SDS011;64985;46.364;17.008;2024-01-06T11:55:59;39.45;;;20.83;;
76202;SDS011;64985;46.364;17.008;2024-01-06T11:59:02;46.33;;;23.90;;
76202;SDS011;64985;46.364;17.008;2024-01-06T12:02:04;45.70;;;23.38;;
76202;SDS011;64985;46.364;17.008;2024-01-06T12:05:16;44.10;;;22.85;;
76202;SDS011;64985;46.364;17.008;2024-01-06T12:08:20;44.83;;;22.98;;
76202;SDS011;64985;46.364;17.008;2024-01-06T12:11:22;48.45;;;25.45;;
76202;SDS011;64985;46.364;17.008;2024-01-06T12:14:24;45.15;;;23.38;;
76202;SDS011;64985;46.364;17.008;2024-01-06T12:17:30;46.33;;;23.23;;
76202;SDS011;64985;46.364;17.008;2024-01-06T12:20:33;38.45;;;21.35;;
76202;SDS011;64985;46.364;17.008;2024-01-06T12:23:35;49.38;;;26.25;;
76202;SDS011;64985;46.364;17.008;2024-01-06T12:26:40;41.25;;;22.17;;
76202;SDS011;64985;46.364;17.008;2024-01-06T12:29:43;43.03;;;22.50;;
76202;SDS011;64985;46.364;17.008;2024-01-06T12:32:46;45.55;;;23.05;;
76202;SDS011;64985;46.364;17.008;2024-01-06T12:35:50;47.05;;;24.27;;
76202;SDS011;64985;46.364;17.008;2024-01-06T12:38:53;46.85;;;24.17;;
76202;SDS011;64985;46.364;17.008;2024-01-06T12:41:57;43.88;;;22.77;;
76202;SDS011;64985;46.364;17.008;2024-01-06T12:45:02;41.65;;;22.75;;
76202;SDS011;64985;46.364;17.008;2024-01-06T12:48:04;40.35;;;22.10;;
76202;SDS011;64985;46.364;17.008;2024-01-06T12:51:07;38.92;;;20.42;;
76202;SDS011;64985;46.364;17.008;2024-01-06T12:54:09;34.22;;;19.60;;
76202;SDS011;64985;46.364;17.008;2024-01-06T12:57:12;40.22;;;20.70;;
76202;SDS011;64985;46.364;17.008;2024-01-06T13:00:14;35.30;;;18.98;;
76202;SDS011;64985;46.364;17.008;2024-01-06T13:03:18;34.97;;;18.80;;
76202;SDS011;64985;46.364;17.008;2024-01-06T13:06:21;32.08;;;17.50;;
76202;SDS011;64985;46.364;17.008;2024-01-06T13:09:24;32.00;;;16.92;;
76202;SDS011;64985;46.364;17.008;2024-01-06T13:12:28;34.17;;;17.65;;
76202;SDS011;64985;46.364;17.008;2024-01-06T13:15:31;30.67;;;16.30;;
76202;SDS011;64985;46.364;17.008;2024-01-06T13:18:33;26.65;;;14.82;;
76202;SDS011;64985;46.364;17.008;2024-01-06T13:21:36;28.23;;;15.88;;
76202;SDS011;64985;46.364;17.008;2024-01-06T13:24:41;27.90;;;15.07;;
76202;SDS011;64985;46.364;17.008;2024-01-06T13:27:43;28.60;;;15.00;;
76202;SDS011;64985;46.364;17.008;2024-01-06T13:30:46;30.00;;;15.73;;
76202;SDS011;64985;46.364;17.008;2024-01-06T13:33:48;47.55;;;24.38;;
76202;SDS011;64985;46.364;17.008;2024-01-06T13:36:53;25.63;;;14.98;;
76202;SDS011;64985;46.364;17.008;2024-01-06T13:39:58;26.67;;;15.23;;
76202;SDS011;64985;46.364;17.008;2024-01-06T13:43:00;27.02;;;15.07;;
76202;SDS011;64985;46.364;17.008;2024-01-06T13:46:06;27.63;;;16.73;;
76202;SDS011;64985;46.364;17.008;2024-01-06T13:49:09;24.95;;;15.38;;
76202;SDS011;64985;46.364;17.008;2024-01-06T13:52:11;26.00;;;14.98;;
76202;SDS011;64985;46.364;17.008;2024-01-06T13:55:13;26.25;;;15.23;;
76202;SDS011;64985;46.364;17.008;2024-01-06T13:58:16;25.60;;;15.50;;
76202;SDS011;64985;46.364;17.008;2024-01-06T14:01:19;21.92;;;13.35;;
76202;SDS011;64985;46.364;17.008;2024-01-06T14:04:21;21.40;;;12.30;;
76202;SDS011;64985;46.364;17.008;2024-01-06T14:07:25;17.98;;;11.38;;
76202;SDS011;64985;46.364;17.008;2024-01-06T14:10:28;17.90;;;11.25;;
76202;SDS011;64985;46.364;17.008;2024-01-06T14:13:33;18.80;;;11.15;;
76202;SDS011;64985;46.364;17.008;2024-01-06T14:16:35;20.90;;;11.98;;
76202;SDS011;64985;46.364;17.008;2024-01-06T14:19:38;16.98;;;10.38;;
76202;SDS011;64985;46.364;17.008;2024-01-06T14:22:40;19.30;;;11.50;;
76202;SDS011;64985;46.364;17.008;2024-01-06T14:25:42;16.65;;;10.38;;
76202;SDS011;64985;46.364;17.008;2024-01-06T14:28:44;19.30;;;10.18;;
76202;SDS011;64985;46.364;17.008;2024-01-06T14:31:47;16.42;;;10.15;;
76202;SDS011;64985;46.364;17.008;2024-01-06T14:34:50;20.73;;;11.68;;
76202;SDS011;64985;46.364;17.008;2024-01-06T14:37:53;24.27;;;12.65;;
76202;SDS011;64985;46.364;17.008;2024-01-06T14:40:55;19.20;;;11.48;;
76202;SDS011;64985;46.364;17.008;2024-01-06T14:43:58;21.10;;;10.98;;
76202;SDS011;64985;46.364;17.008;2024-01-06T14:47:00;17.33;;;10.13;;
76202;SDS011;64985;46.364;17.008;2024-01-06T14:50:03;15.13;;;9.25;;
76202;SDS011;64985;46.364;17.008;2024-01-06T14:53:05;16.40;;;9.75;;
76202;SDS011;64985;46.364;17.008;2024-01-06T14:56:08;13.13;;;7.85;;
76202;SDS011;64985;46.364;17.008;2024-01-06T14:59:10;12.52;;;8.15;;
76202;SDS011;64985;46.364;17.008;2024-01-06T15:02:13;15.27;;;9.27;;
76202;SDS011;64985;46.364;17.008;2024-01-06T15:05:15;12.98;;;8.02;;
76202;SDS011;64985;46.364;17.008;2024-01-06T15:08:18;13.38;;;7.80;;
76202;SDS011;64985;46.364;17.008;2024-01-06T15:11:20;14.95;;;9.35;;
76202;SDS011;64985;46.364;17.008;2024-01-06T15:14:23;16.90;;;9.00;;
76202;SDS011;64985;46.364;17.008;2024-01-06T15:17:25;12.50;;;8.10;;
76202;SDS011;64985;46.364;17.008;2024-01-06T15:20:28;14.15;;;9.02;;
76202;SDS011;64985;46.364;17.008;2024-01-06T15:23:31;16.92;;;9.43;;
76202;SDS011;64985;46.364;17.008;2024-01-06T15:26:33;13.98;;;8.57;;
76202;SDS011;64985;46.364;17.008;2024-01-06T15:29:36;15.90;;;9.52;;
76202;SDS011;64985;46.364;17.008;2024-01-06T15:32:40;14.50;;;9.25;;
76202;SDS011;64985;46.364;17.008;2024-01-06T15:35:43;17.00;;;8.75;;
76202;SDS011;64985;46.364;17.008;2024-01-06T15:38:46;12.10;;;8.68;;
76202;SDS011;64985;46.364;17.008;2024-01-06T15:41:48;13.57;;;8.77;;
76202;SDS011;64985;46.364;17.008;2024-01-06T15:44:53;15.63;;;9.10;;
76202;SDS011;64985;46.364;17.008;2024-01-06T15:47:55;13.75;;;8.93;;
76202;SDS011;64985;46.364;17.008;2024-01-06T15:50:57;11.95;;;8.15;;
76202;SDS011;64985;46.364;17.008;2024-01-06T15:54:00;14.32;;;9.52;;
76202;SDS011;64985;46.364;17.008;2024-01-06T15:57:02;19.00;;;12.38;;
76202;SDS011;64985;46.364;17.008;2024-01-06T16:00:05;18.52;;;11.93;;
76202;SDS011;64985;46.364;17.008;2024-01-06T16:03:08;18.58;;;11.32;;
76202;SDS011;64985;46.364;17.008;2024-01-06T16:06:10;13.55;;;9.15;;
76202;SDS011;64985;46.364;17.008;2024-01-06T16:09:13;12.85;;;8.85;;
76202;SDS011;64985;46.364;17.008;2024-01-06T16:12:15;14.10;;;10.02;;
76202;SDS011;64985;46.364;17.008;2024-01-06T16:15:18;16.15;;;10.68;;
76202;SDS011;64985;46.364;17.008;2024-01-06T16:18:22;15.85;;;9.52;;
76202;SDS011;64985;46.364;17.008;2024-01-06T16:21:25;14.77;;;9.32;;
76202;SDS011;64985;46.364;17.008;2024-01-06T16:24:28;14.48;;;9.95;;
76202;SDS011;64985;46.364;17.008;2024-01-06T16:27:31;15.95;;;9.20;;
76202;SDS011;64985;46.364;17.008;2024-01-06T16:30:34;12.27;;;8.25;;
76202;SDS011;64985;46.364;17.008;2024-01-06T16:33:36;14.80;;;8.43;;
76202;SDS011;64985;46.364;17.008;2024-01-06T16:36:39;13.57;;;8.70;;
76202;SDS011;64985;46.364;17.008;2024-01-06T16:39:41;13.95;;;8.55;;
76202;SDS011;64985;46.364;17.008;2024-01-06T16:42:44;10.30;;;7.70;;
76202;SDS011;64985;46.364;17.008;2024-01-06T16:45:47;10.43;;;7.43;;
76202;SDS011;64985;46.364;17.008;2024-01-06T16:48:49;12.65;;;7.88;;
76202;SDS011;64985;46.364;17.008;2024-01-06T16:51:52;14.18;;;9.07;;
76202;SDS011;64985;46.364;17.008;2024-01-06T16:54:54;13.35;;;8.50;;
76202;SDS011;64985;46.364;17.008;2024-01-06T16:57:57;13.55;;;8.52;;
76202;SDS011;64985;46.364;17.008;2024-01-06T17:01:01;13.90;;;9.45;;
76202;SDS011;64985;46.364;17.008;2024-01-06T17:04:04;15.43;;;10.25;;
76202;SDS011;64985;46.364;17.008;2024-01-06T17:07:07;15.30;;;9.70;;
76202;SDS011;64985;46.364;17.008;2024-01-06T17:10:09;19.88;;;9.45;;
76202;SDS011;64985;46.364;17.008;2024-01-06T17:13:12;14.43;;;8.80;;
76202;SDS011;64985;46.364;17.008;2024-01-06T17:16:15;15.95;;;8.85;;
76202;SDS011;64985;46.364;17.008;2024-01-06T17:19:17;14.43;;;8.52;;
76202;SDS011;64985;46.364;17.008;2024-01-06T17:22:19;13.63;;;8.68;;
76202;SDS011;64985;46.364;17.008;2024-01-06T17:25:22;13.43;;;8.82;;
76202;SDS011;64985;46.364;17.008;2024-01-06T17:28:24;15.57;;;9.13;;
76202;SDS011;64985;46.364;17.008;2024-01-06T17:31:27;13.85;;;8.57;;
76202;SDS011;64985;46.364;17.008;2024-01-06T17:34:29;21.58;;;11.77;;
76202;SDS011;64985;46.364;17.008;2024-01-06T17:37:32;22.25;;;12.43;;
76202;SDS011;64985;46.364;17.008;2024-01-06T17:40:34;19.92;;;10.48;;
76202;SDS011;64985;46.364;17.008;2024-01-06T17:43:36;26.63;;;13.77;;
76202;SDS011;64985;46.364;17.008;2024-01-06T17:46:38;33.40;;;15.18;;